createdAt,value
2022-11-24T00:00:49.945Z,6.77
2022-11-24T00:03:16.559Z,6.78
2022-11-24T00:05:43.309Z,6.80
2022-11-24T00:08:09.833Z,6.82
2022-11-24T00:10:36.268Z,6.85
2022-11-24T00:13:02.724Z,6.87
2022-11-24T00:15:29.199Z,6.89
2022-11-24T00:17:55.642Z,6.87
2022-11-24T00:20:22.091Z,6.88
2022-11-24T00:22:48.612Z,6.87
2022-11-24T00:25:15.211Z,6.86
2022-11-24T00:27:41.676Z,6.86
2022-11-24T00:30:09.809Z,6.84
2022-11-24T00:32:36.285Z,6.82
2022-11-24T00:35:02.810Z,6.81
2022-11-24T00:37:29.310Z,6.79
2022-11-24T00:39:55.812Z,6.80
2022-11-24T00:42:22.267Z,6.82
2022-11-24T00:44:48.696Z,6.84
2022-11-24T00:47:15.210Z,6.83
2022-11-24T00:49:41.692Z,6.81
2022-11-24T00:52:08.327Z,6.79
2022-11-24T00:54:35.151Z,6.76
2022-11-24T00:57:01.787Z,6.73
2022-11-24T00:59:28.278Z,6.72
2022-11-24T01:01:55.093Z,6.72
2022-11-24T01:04:21.935Z,6.70
2022-11-24T01:06:48.409Z,6.69
2022-11-24T01:09:14.897Z,6.66
2022-11-24T01:11:59.705Z,6.66
2022-11-24T01:14:26.190Z,6.63
2022-11-24T01:16:53.360Z,6.61
2022-11-24T01:19:20.340Z,6.59
2022-11-24T01:21:47.141Z,6.58
2022-11-24T01:24:14.071Z,6.57
2022-11-24T01:26:41.364Z,6.54
2022-11-24T01:29:09.352Z,6.51
2022-11-24T01:31:37.001Z,6.51
2022-11-24T01:34:03.918Z,6.50
2022-11-24T01:36:30.443Z,6.49
2022-11-24T01:38:56.875Z,6.49
2022-11-24T01:41:24.842Z,6.46
2022-11-24T01:43:53.242Z,6.44
2022-11-24T01:46:31.144Z,6.44
2022-11-24T01:49:13.216Z,6.45
2022-11-24T01:51:42.066Z,6.46
2022-11-24T01:54:13.998Z,6.48
2022-11-24T01:56:43.931Z,6.48
2022-11-24T01:59:13.321Z,6.50
2022-11-24T02:01:40.225Z,6.54
2022-11-24T02:04:11.456Z,6.59
2022-11-24T02:06:40.799Z,6.60
2022-11-24T02:09:20.932Z,6.64
2022-11-24T02:11:47.642Z,6.67
2022-11-24T02:14:18.018Z,6.68
2022-11-24T02:16:49.077Z,6.72
2022-11-24T02:19:25.660Z,6.77
2022-11-24T02:21:52.131Z,6.81
2022-11-24T02:24:30.214Z,6.83
2022-11-24T02:26:56.759Z,6.85
2022-11-24T02:29:23.364Z,6.89
2022-11-24T02:31:55.013Z,6.89
2022-11-24T02:34:21.542Z,6.91
2022-11-24T02:36:48.008Z,6.92
2022-11-24T02:39:15.644Z,6.93
2022-11-24T02:41:46.471Z,6.96
2022-11-24T02:44:15.539Z,6.95
2022-11-24T02:46:42.114Z,6.94
2022-11-24T02:49:08.687Z,6.93
2022-11-24T02:51:35.172Z,6.94
2022-11-24T02:54:01.649Z,6.95
2022-11-24T02:56:28.114Z,6.97
2022-11-24T02:58:54.634Z,6.99
2022-11-24T03:01:21.139Z,6.99
2022-11-24T03:03:47.782Z,6.98
2022-11-24T03:06:14.324Z,7.00
2022-11-24T03:08:40.786Z,7.00
2022-11-24T03:11:07.229Z,7.01
2022-11-24T03:13:33.682Z,7.05
2022-11-24T03:16:00.256Z,7.05
2022-11-24T03:18:26.743Z,7.05
2022-11-24T03:20:53.204Z,7.09
2022-11-24T03:23:19.730Z,7.09
2022-11-24T03:25:46.576Z,7.12
2022-11-24T03:28:13.023Z,7.13
2022-11-24T03:30:39.462Z,7.14
2022-11-24T03:33:07.099Z,7.13
2022-11-24T03:35:33.586Z,7.14
2022-11-24T03:38:00.039Z,7.13
2022-11-24T03:40:26.600Z,7.12
2022-11-24T03:42:53.026Z,7.13
2022-11-24T03:48:07.359Z,7.15
2022-11-24T03:50:33.834Z,7.15
2022-11-24T03:53:00.288Z,7.13
2022-11-24T03:55:26.733Z,7.11
2022-11-24T03:57:53.199Z,7.11
2022-11-24T04:00:19.791Z,7.11
2022-11-24T04:02:48.083Z,7.13
2022-11-24T04:05:15.169Z,7.12
2022-11-24T04:07:41.946Z,7.12
2022-11-24T04:10:08.980Z,7.11
2022-11-24T04:12:44.539Z,7.14
2022-11-24T04:15:19.119Z,7.16
2022-11-24T04:17:47.155Z,7.18
2022-11-24T04:20:14.295Z,7.19
2022-11-24T04:22:40.876Z,7.18
2022-11-24T04:25:08.310Z,7.18
2022-11-24T04:27:36.547Z,7.18
2022-11-24T04:30:07.339Z,7.17
2022-11-24T04:32:33.774Z,7.18
2022-11-24T04:35:00.155Z,7.16
2022-11-24T04:37:26.529Z,7.16
2022-11-24T04:39:54.889Z,7.17
2022-11-24T04:42:21.549Z,7.14
2022-11-24T04:44:47.970Z,7.14
2022-11-24T04:47:21.057Z,7.15
2022-11-24T04:49:49.015Z,7.17
2022-11-24T04:52:16.756Z,7.16
2022-11-24T04:54:43.414Z,7.16
2022-11-24T04:57:16.548Z,7.18
2022-11-24T04:59:43.073Z,7.17
2022-11-24T05:02:10.399Z,7.16
2022-11-24T05:04:37.558Z,7.16
2022-11-24T05:07:04.176Z,7.14
2022-11-24T05:09:54.927Z,7.16
2022-11-24T05:12:17.052Z,7.16
2022-11-24T05:14:43.440Z,7.15
2022-11-24T05:17:09.864Z,7.13
2022-11-24T05:19:36.329Z,7.13
2022-11-24T05:22:02.951Z,7.09
2022-11-24T05:24:29.335Z,7.05
2022-11-24T05:26:55.755Z,7.02
2022-11-24T05:29:22.196Z,7.00
2022-11-24T05:31:48.646Z,6.99
2022-11-24T05:34:15.476Z,6.95
2022-11-24T05:36:54.247Z,6.92
2022-11-24T05:39:21.403Z,6.90
2022-11-24T05:41:47.859Z,6.88
2022-11-24T05:44:14.318Z,6.84
2022-11-24T05:46:40.852Z,6.84
2022-11-24T05:49:07.266Z,6.81
2022-11-24T05:51:34.488Z,6.78
2022-11-24T05:54:00.951Z,6.76
2022-11-24T05:56:27.348Z,6.76
2022-11-24T05:58:53.803Z,6.72
2022-11-24T06:01:20.343Z,6.71
2022-11-24T06:03:46.896Z,6.68
2022-11-24T06:06:13.976Z,6.71
2022-11-24T06:08:40.374Z,6.71
2022-11-24T06:11:18.556Z,6.71
2022-11-24T06:13:46.834Z,6.69
2022-11-24T06:16:13.401Z,6.67
2022-11-24T06:18:40.304Z,6.66
2022-11-24T06:21:11.594Z,6.67
2022-11-24T06:23:38.985Z,6.66
2022-11-24T06:26:05.889Z,6.66
2022-11-24T06:28:32.584Z,6.67
2022-11-24T06:31:02.970Z,6.67
2022-11-24T06:33:36.895Z,6.66
2022-11-24T06:36:06.154Z,6.65
2022-11-24T06:38:34.187Z,6.64
2022-11-24T06:41:02.537Z,6.65
2022-11-24T06:43:30.330Z,6.65
2022-11-24T06:45:57.376Z,6.64
2022-11-24T06:48:24.392Z,6.64
2022-11-24T06:50:51.608Z,6.62
2022-11-24T06:53:18.522Z,6.61
2022-11-24T06:55:46.362Z,6.59
2022-11-24T06:58:13.024Z,6.57
2022-11-24T07:00:39.673Z,6.55
2022-11-24T07:03:06.228Z,6.52
2022-11-24T07:05:32.829Z,6.51
2022-11-24T07:08:00.514Z,6.51
2022-11-24T07:10:27.206Z,6.51
2022-11-24T07:12:53.671Z,6.50
2022-11-24T07:15:20.146Z,6.49
2022-11-24T07:17:46.595Z,6.50
2022-11-24T07:20:12.989Z,6.51
2022-11-24T07:22:39.378Z,6.51
2022-11-24T07:25:07.396Z,6.52
2022-11-24T07:27:33.865Z,6.53
2022-11-24T07:30:00.298Z,6.56
2022-11-24T07:32:26.778Z,6.57
2022-11-24T07:34:53.205Z,6.56
2022-11-24T07:37:19.599Z,6.56
2022-11-24T07:39:46.158Z,6.56
2022-11-24T07:42:12.696Z,6.58
2022-11-24T07:44:40.575Z,6.59
2022-11-24T07:47:07.015Z,6.62
2022-11-24T07:49:33.643Z,6.63
2022-11-24T07:52:00.946Z,6.63
2022-11-24T07:54:27.492Z,6.63
2022-11-24T07:56:53.979Z,6.63
2022-11-24T07:59:20.476Z,6.63
2022-11-24T08:01:46.990Z,6.63
2022-11-24T08:04:13.556Z,6.64
2022-11-24T08:06:44.669Z,6.66
2022-11-24T08:09:13.626Z,6.67
2022-11-24T08:11:40.033Z,6.69
2022-11-24T08:14:06.547Z,6.71
2022-11-24T08:16:33.145Z,6.74
2022-11-24T08:18:59.728Z,6.77
2022-11-24T08:21:26.375Z,6.79
2022-11-24T08:23:56.956Z,6.81
2022-11-24T08:26:25.070Z,6.84
2022-11-24T08:28:57.516Z,6.86
2022-11-24T08:31:27.106Z,6.87
2022-11-24T08:33:55.821Z,6.86
2022-11-24T08:36:22.231Z,6.85
2022-11-24T08:38:49.677Z,6.87
2022-11-24T08:41:17.552Z,6.90
2022-11-24T08:43:44.771Z,6.94
2022-11-24T08:46:14.182Z,6.99
2022-11-24T08:48:41.585Z,7.02
2022-11-24T08:51:11.536Z,7.03
2022-11-24T08:53:38.846Z,7.03
2022-11-24T08:56:05.941Z,7.02
2022-11-24T08:58:32.897Z,7.00
2022-11-24T09:01:13.802Z,6.98
2022-11-24T09:03:46.328Z,6.96
2022-11-24T09:06:18.371Z,6.95
2022-11-24T09:08:44.855Z,6.95
2022-11-24T09:11:14.152Z,6.96
2022-11-24T09:13:41.305Z,6.97
2022-11-24T09:16:13.840Z,7.05
2022-11-24T09:18:40.984Z,7.10
2022-11-24T09:21:15.973Z,7.13
2022-11-24T09:23:43.437Z,7.19
2022-11-24T09:26:13.133Z,7.24
2022-11-24T09:28:40.819Z,7.28
2022-11-24T09:31:10.240Z,7.31
2022-11-24T09:33:38.025Z,7.36
2022-11-24T09:36:05.824Z,7.38
2022-11-24T09:38:33.009Z,7.44
2022-11-24T09:41:17.891Z,7.50
2022-11-24T09:44:03.256Z,7.52
2022-11-24T09:46:49.077Z,7.54
2022-11-24T09:49:24.154Z,7.60
2022-11-24T09:51:54.933Z,7.62
2022-11-24T09:54:28.643Z,7.67
2022-11-24T09:56:59.781Z,7.73
2022-11-24T09:59:27.486Z,7.78
2022-11-24T10:01:55.706Z,7.80
2022-11-24T10:04:27.444Z,7.83
2022-11-24T10:07:12.125Z,7.89
2022-11-24T10:09:53.162Z,7.93
2022-11-24T10:12:28.372Z,8.01
2022-11-24T10:15:01.527Z,8.05
2022-11-24T10:17:34.587Z,8.10
2022-11-24T10:20:21.712Z,8.14
2022-11-24T10:23:20.819Z,8.11
2022-11-24T10:26:00.748Z,8.08
2022-11-24T10:28:44.913Z,8.08
2022-11-24T10:31:24.064Z,8.10
2022-11-24T10:33:51.234Z,8.12
2022-11-24T10:36:29.886Z,8.18
2022-11-24T10:39:10.917Z,8.24
2022-11-24T10:42:15.792Z,8.33
2022-11-24T10:44:43.011Z,8.39
2022-11-24T10:47:22.502Z,8.44
2022-11-24T10:49:58.036Z,8.49
2022-11-24T10:52:25.595Z,8.54
2022-11-24T10:54:57.959Z,8.60
2022-11-24T10:57:53.650Z,8.68
2022-11-24T11:00:20.041Z,8.71
2022-11-24T11:02:48.861Z,8.77
2022-11-24T11:05:44.074Z,8.84
2022-11-24T11:08:17.202Z,8.90
2022-11-24T11:10:44.624Z,8.94
2022-11-24T11:13:31.204Z,8.91
2022-11-24T11:15:59.072Z,8.85
2022-11-24T11:18:31.920Z,8.85
2022-11-24T11:21:02.074Z,8.87
2022-11-24T11:23:32.270Z,8.89
2022-11-24T11:26:38.547Z,8.92
2022-11-24T11:35:02.664Z,9.00
2022-11-24T11:37:32.789Z,9.01
2022-11-24T11:40:00.273Z,9.02
2022-11-24T11:43:00.653Z,9.07
2022-11-24T11:45:27.831Z,9.11
2022-11-24T11:48:07.624Z,9.13
2022-11-24T11:51:21.129Z,9.14
2022-11-24T11:53:47.045Z,9.14
2022-11-24T11:56:13.975Z,9.16
2022-11-24T11:58:53.463Z,9.20
2022-11-24T12:01:56.932Z,9.23
2022-11-24T12:04:52.631Z,9.27
2022-11-24T12:07:41.732Z,9.29
2022-11-24T12:10:40.626Z,9.31
2022-11-24T12:13:16.038Z,9.31
2022-11-24T12:15:51.712Z,9.35
2022-11-24T12:18:59.140Z,9.37
2022-11-24T12:21:52.943Z,9.38
2022-11-24T12:24:35.398Z,9.42
2022-11-24T12:27:17.987Z,9.43
2022-11-24T12:30:10.622Z,9.44
2022-11-24T12:32:36.954Z,9.45
2022-11-24T12:35:29.455Z,9.47
2022-11-24T12:38:02.522Z,9.48
2022-11-24T12:40:51.356Z,9.50
2022-11-24T12:43:30.283Z,9.52
2022-11-24T12:46:15.569Z,9.51
2022-11-24T12:48:52.756Z,9.50
2022-11-24T12:51:25.356Z,9.52
2022-11-24T12:53:53.583Z,9.48
2022-11-24T12:56:29.128Z,9.47
2022-11-24T12:59:20.778Z,9.49
2022-11-24T13:01:56.991Z,9.50
2022-11-24T13:04:40.990Z,9.53
2022-11-24T13:07:12.324Z,9.51
2022-11-24T13:10:16.995Z,9.50
2022-11-24T13:13:06.004Z,9.52
2022-11-24T13:18:53.804Z,9.54
2022-11-24T13:21:31.357Z,9.56
2022-11-24T13:23:59.920Z,9.55
2022-11-24T13:26:41.491Z,9.55
2022-11-24T13:29:31.357Z,9.57
2022-11-24T13:32:00.780Z,9.55
2022-11-24T13:34:39.584Z,9.55
2022-11-24T13:37:33.912Z,9.56
2022-11-24T13:40:11.401Z,9.57
2022-11-24T13:42:56.351Z,9.57
2022-11-24T13:45:45.221Z,9.55
2022-11-24T13:48:21.177Z,9.55
2022-11-24T13:50:50.988Z,9.55
2022-11-24T13:53:45.507Z,9.56
2022-11-24T13:56:11.844Z,9.56
2022-11-24T13:58:40.381Z,9.59
2022-11-24T14:01:24.123Z,9.57
2022-11-24T14:04:28.499Z,9.56
2022-11-24T14:07:07.471Z,9.57
2022-11-24T14:09:44.800Z,9.55
2022-11-24T14:12:23.231Z,9.51
2022-11-24T14:14:52.459Z,9.51
2022-11-24T14:17:24.620Z,9.49
2022-11-24T14:20:00.065Z,9.47
2022-11-24T14:22:34.541Z,9.46
2022-11-24T14:25:02.515Z,9.46
2022-11-24T14:27:38.574Z,9.46
2022-11-24T14:30:18.762Z,9.45
2022-11-24T14:33:02.136Z,9.42
2022-11-24T14:35:30.338Z,9.43
2022-11-24T14:37:57.173Z,9.40
2022-11-24T14:40:41.672Z,9.36
2022-11-24T14:43:21.331Z,9.31
2022-11-24T14:45:53.766Z,9.26
2022-11-24T14:48:25.104Z,9.22
2022-11-24T14:50:52.435Z,9.18
2022-11-24T14:53:26.247Z,9.17
2022-11-24T14:56:20.944Z,9.12
2022-11-24T14:58:47.438Z,9.08
2022-11-24T15:01:29.533Z,9.04
2022-11-24T15:07:25.813Z,8.94
2022-11-24T15:09:58.435Z,8.89
2022-11-24T15:12:40.698Z,8.85
2022-11-24T15:15:22.573Z,8.82
2022-11-24T15:17:52.446Z,8.78
2022-11-24T15:20:43.154Z,8.75
2022-11-24T15:23:22.798Z,8.68
2022-11-24T15:26:11.814Z,8.67
2022-11-24T15:28:38.788Z,8.63
2022-11-24T15:31:09.586Z,8.61
2022-11-24T15:33:36.100Z,8.60
2022-11-24T15:36:02.562Z,8.56
2022-11-24T15:38:28.937Z,8.53
2022-11-24T15:40:58.260Z,8.48
2022-11-24T15:43:34.917Z,8.45
2022-11-24T15:46:02.725Z,8.39
2022-11-24T15:48:29.858Z,8.37
2022-11-24T15:50:57.946Z,8.32
2022-11-24T15:53:32.565Z,8.29
2022-11-24T15:56:01.563Z,8.22
2022-11-24T15:58:28.036Z,8.19
2022-11-24T16:00:54.698Z,8.20
2022-11-24T16:06:16.728Z,8.13
2022-11-24T16:08:45.827Z,8.11
2022-11-24T16:11:12.510Z,8.10
2022-11-24T16:13:38.965Z,8.08
2022-11-24T16:16:05.938Z,8.06
2022-11-24T16:18:32.479Z,8.03
2022-11-24T16:20:58.924Z,8.00
2022-11-24T16:23:25.354Z,7.97
2022-11-24T16:25:52.108Z,7.99
2022-11-24T16:28:20.404Z,7.97
2022-11-24T16:30:50.661Z,7.94
2022-11-24T16:33:17.480Z,7.94
2022-11-24T16:35:47.395Z,7.92
2022-11-24T16:38:20.102Z,7.90
2022-11-24T16:40:54.601Z,7.86
2022-11-24T16:43:21.298Z,7.84
2022-11-24T16:46:21.254Z,7.84
2022-11-24T16:48:50.008Z,7.83
2022-11-24T16:51:17.493Z,7.82
2022-11-24T16:53:44.000Z,7.81
2022-11-24T16:56:10.968Z,7.80
2022-11-24T16:58:39.057Z,7.78
2022-11-24T17:01:07.458Z,7.74
2022-11-24T17:03:37.406Z,7.71
2022-11-24T17:06:06.178Z,7.73
2022-11-24T17:08:34.820Z,7.70
2022-11-24T17:11:15.651Z,7.67
2022-11-24T17:13:43.062Z,7.66
2022-11-24T17:16:12.193Z,7.63
2022-11-24T17:18:39.099Z,7.61
2022-11-24T17:21:09.804Z,7.62
2022-11-24T17:23:37.110Z,7.65
2022-11-24T17:26:22.088Z,7.68
2022-11-24T17:28:48.794Z,7.67
2022-11-24T17:31:22.599Z,7.67
2022-11-24T17:33:50.362Z,7.68
2022-11-24T17:36:17.286Z,7.67
2022-11-24T17:38:43.730Z,7.65
2022-11-24T17:41:11.206Z,7.65
2022-11-24T17:43:37.731Z,7.62
2022-11-24T17:46:05.271Z,7.61
2022-11-24T17:48:32.561Z,7.59
2022-11-24T17:51:13.161Z,7.58
2022-11-24T17:53:41.809Z,7.56
2022-11-24T17:56:12.783Z,7.53
2022-11-24T17:58:42.846Z,7.54
2022-11-24T18:01:10.377Z,7.53
2022-11-24T18:03:38.608Z,7.51
2022-11-24T18:06:09.017Z,7.49
2022-11-24T18:08:37.240Z,7.47
2022-11-24T18:11:12.393Z,7.48
2022-11-24T18:16:28.016Z,7.49
2022-11-24T18:19:07.957Z,7.50
2022-11-24T18:21:35.132Z,7.53
2022-11-24T18:24:01.730Z,7.54
2022-11-24T18:26:28.121Z,7.53
2022-11-24T18:28:54.565Z,7.54
2022-11-24T18:31:22.191Z,7.55
2022-11-24T18:33:48.761Z,7.56
2022-11-24T18:36:18.326Z,7.57
2022-11-24T18:38:44.925Z,7.57
2022-11-24T18:41:13.944Z,7.57
2022-11-24T18:43:40.731Z,7.56
2022-11-24T18:46:17.632Z,7.54
2022-11-24T18:48:44.955Z,7.53
2022-11-24T18:51:15.013Z,7.52
2022-11-24T18:53:46.228Z,7.49
2022-11-24T18:56:16.729Z,7.48
2022-11-24T18:58:43.970Z,7.47
2022-11-24T19:01:15.996Z,7.44
2022-11-24T19:03:49.061Z,7.43
2022-11-24T19:06:24.379Z,7.39
2022-11-24T19:08:53.525Z,7.39
2022-11-24T19:11:23.219Z,7.36
2022-11-24T19:13:50.172Z,7.36
2022-11-24T19:16:18.477Z,7.33
2022-11-24T19:18:48.936Z,7.32
2022-11-24T19:21:19.739Z,7.30
2022-11-24T19:23:46.571Z,7.27
2022-11-24T19:26:13.158Z,7.27
2022-11-24T19:28:39.592Z,7.26
2022-11-24T19:31:10.247Z,7.26
2022-11-24T19:33:36.839Z,7.24
2022-11-24T19:36:14.950Z,7.22
2022-11-24T19:38:42.302Z,7.20
2022-11-24T19:41:11.330Z,7.17
2022-11-24T19:43:38.423Z,7.17
2022-11-24T19:46:13.028Z,7.16
2022-11-24T19:48:42.921Z,7.16
2022-11-24T19:51:32.905Z,7.15
2022-11-24T19:53:59.754Z,7.13
2022-11-24T19:56:28.540Z,7.11
2022-11-24T19:58:55.505Z,7.11
2022-11-24T20:01:27.083Z,7.10
2022-11-24T20:03:58.744Z,7.09
2022-11-24T20:06:31.122Z,7.09
2022-11-24T20:09:00.282Z,7.07
2022-11-24T20:11:27.931Z,7.06
2022-11-24T20:13:54.570Z,7.06
2022-11-24T20:16:28.089Z,7.04
2022-11-24T20:18:56.525Z,7.00
2022-11-24T20:21:25.400Z,7.00
2022-11-24T20:24:10.839Z,7.01
2022-11-24T20:26:41.844Z,6.99
2022-11-24T20:29:12.057Z,7.00
2022-11-24T20:31:44.881Z,6.99
2022-11-24T20:34:14.866Z,6.97
2022-11-24T20:36:43.330Z,6.98
2022-11-24T20:39:19.106Z,6.99
2022-11-24T20:41:45.554Z,7.00
2022-11-24T20:44:15.259Z,7.02
2022-11-24T20:46:43.843Z,7.00
2022-11-24T20:49:18.944Z,7.01
2022-11-24T20:51:47.570Z,7.05
2022-11-24T20:54:16.405Z,7.08
2022-11-24T20:56:44.292Z,7.10
2022-11-24T20:59:16.687Z,7.13
2022-11-24T21:01:45.497Z,7.15
2022-11-24T21:04:15.838Z,7.15
2022-11-24T21:06:42.313Z,7.16
2022-11-24T21:09:09.356Z,7.16
2022-11-24T21:11:36.904Z,7.17
2022-11-24T21:14:03.752Z,7.18
2022-11-24T21:16:32.414Z,7.19
2022-11-24T21:19:01.013Z,7.21
2022-11-24T21:21:33.851Z,7.22
2022-11-24T21:24:04.492Z,7.23
2022-11-24T21:26:30.945Z,7.24
2022-11-24T21:28:57.889Z,7.24
2022-11-24T21:31:24.475Z,7.25
2022-11-24T21:33:53.167Z,7.25
2022-11-24T21:36:23.688Z,7.26
2022-11-24T21:38:57.655Z,7.25
2022-11-24T21:41:26.079Z,7.26
2022-11-24T21:43:55.750Z,7.26
2022-11-24T21:46:22.574Z,7.26
2022-11-24T21:48:49.174Z,7.25
2022-11-24T21:51:17.770Z,7.24
2022-11-24T21:53:45.362Z,7.24
2022-11-24T21:56:17.182Z,7.23
2022-11-24T21:58:44.755Z,7.24
2022-11-24T22:01:11.683Z,7.23
2022-11-24T22:03:38.245Z,7.24
2022-11-24T22:06:05.325Z,7.25
2022-11-24T22:08:32.021Z,7.25
2022-11-24T22:11:13.570Z,7.24
2022-11-24T22:13:40.948Z,7.29
2022-11-24T22:16:19.386Z,7.33
2022-11-24T22:18:46.650Z,7.38
2022-11-24T22:21:15.334Z,7.40
2022-11-24T22:23:42.765Z,7.42
2022-11-24T22:26:15.187Z,7.39
2022-11-24T22:28:42.851Z,7.36
2022-11-24T22:31:18.059Z,7.35
2022-11-24T22:33:44.912Z,7.33
2022-11-24T22:36:13.111Z,7.35
2022-11-24T22:38:40.511Z,7.36
2022-11-24T22:41:10.024Z,7.36
2022-11-24T22:43:38.962Z,7.36
2022-11-24T22:46:11.110Z,7.38
2022-11-24T22:48:38.384Z,7.38
2022-11-24T22:51:09.353Z,7.36
2022-11-24T22:53:35.786Z,7.37
2022-11-24T22:56:10.931Z,7.38
2022-11-24T22:58:38.426Z,7.39
2022-11-24T23:01:11.317Z,7.40
2022-11-24T23:03:39.015Z,7.40
2022-11-24T23:06:12.334Z,7.41
2022-11-24T23:08:39.293Z,7.41
2022-11-24T23:11:37.654Z,7.41
2022-11-24T23:14:07.165Z,7.40
2022-11-24T23:16:33.668Z,7.39
2022-11-24T23:19:00.143Z,7.38
2022-11-24T23:21:32.081Z,7.36
2022-11-24T23:24:01.330Z,7.39
2022-11-24T23:26:30.564Z,7.41
2022-11-24T23:28:57.735Z,7.39
2022-11-24T23:31:29.485Z,7.38
2022-11-24T23:33:57.482Z,7.39
2022-11-24T23:36:23.913Z,7.39
2022-11-24T23:38:50.454Z,7.40
2022-11-24T23:41:22.246Z,7.40
2022-11-24T23:43:48.853Z,7.41
2022-11-24T23:46:20.244Z,7.40
2022-11-24T23:48:47.552Z,7.38
2022-11-24T23:51:18.394Z,7.38
2022-11-24T23:53:45.674Z,7.35
2022-11-24T23:56:14.615Z,7.34
2022-11-24T23:58:41.438Z,7.31
